Time;durP1;ratioP1;P1;durP2;ratioP2;P2;SDS_P1;SDS_P2;PMS_P1;PMS_P2;Temp;Humidity;BMP_temperature;BMP_pressure;BME280_temperature;BME280_humidity;BME280_pressure;Samples;Min_cycle;Max_cycle;Signal;HPM_P1;HPM_P2
2023/07/16 00:00:25;;;;;;;5.90;4.10;;;;;;;20.90;100.00;99760.94;5032887;28;20477;-84
2023/07/16 00:02:50;;;;;;;7.45;4.85;;;;;;;20.81;100.00;99756.47;5034498;28;20061;-84
2023/07/16 00:05:15;;;;;;;7.25;4.35;;;;;;;20.81;100.00;99756.47;5016557;28;20033;-84
2023/07/16 00:07:41;;;;;;;7.22;4.22;;;;;;;20.81;100.00;99760.16;5032949;28;20025;-84
2023/07/16 00:10:08;;;;;;;6.25;4.32;;;;;;;20.81;100.00;99763.06;5019405;28;20462;-84
2023/07/16 00:12:33;;;;;;;7.53;4.60;;;;;;;20.83;100.00;99762.50;5035995;28;20032;-84
2023/07/16 00:14:59;;;;;;;5.78;4.65;;;;;;;20.80;100.00;99755.69;5036665;28;20028;-83
2023/07/16 00:17:24;;;;;;;8.77;4.40;;;;;;;20.73;100.00;99749.88;5053569;28;20445;-84
2023/07/16 00:19:55;;;;;;;5.22;4.40;;;;;;;20.71;100.00;99753.38;5053659;28;20463;-83
2023/07/16 00:22:21;;;;;;;7.28;4.22;;;;;;;20.72;100.00;99754.16;5054331;28;20025;-84
2023/07/16 00:24:55;;;;;;;6.38;4.47;;;;;;;20.72;100.00;99754.16;5034477;28;20075;-84
2023/07/16 00:27:20;;;;;;;10.63;4.78;;;;;;;20.67;100.00;99758.75;5034165;28;20037;-83
2023/07/16 00:29:46;;;;;;;4.35;4.03;;;;;;;20.66;100.00;99759.31;5033937;28;20029;-83
2023/07/16 00:32:11;;;;;;;6.75;4.43;;;;;;;20.55;100.00;99751.75;5032529;28;20478;-84
2023/07/16 00:34:36;;;;;;;5.30;4.78;;;;;;;20.57;100.00;99766.47;4999498;28;20045;-82
2023/07/16 00:37:03;;;;;;;7.22;4.55;;;;;;;20.55;100.00;99759.66;5034104;28;20458;-84
2023/07/16 00:39:29;;;;;;;7.90;5.13;;;;;;;20.53;100.00;99759.50;5034092;28;20033;-82
2023/07/16 00:41:56;;;;;;;7.78;4.70;;;;;;;20.45;100.00;99758.69;5034077;28;20395;-84
2023/07/16 00:44:22;;;;;;;5.57;4.32;;;;;;;20.40;100.00;99760.41;5016199;28;20090;-83
2023/07/16 00:46:50;;;;;;;8.10;4.60;;;;;;;20.37;100.00;99761.56;5032272;28;20017;-84
2023/07/16 00:49:21;;;;;;;5.93;4.35;;;;;;;20.32;100.00;99765.41;5015288;28;20026;-84
2023/07/16 00:51:46;;;;;;;6.45;4.80;;;;;;;20.29;100.00;99752.84;5032887;28;20053;-83
2023/07/16 00:54:13;;;;;;;5.60;4.43;;;;;;;20.30;100.00;99756.53;5031420;28;20061;-84
2023/07/16 00:56:41;;;;;;;4.72;4.30;;;;;;;20.26;100.00;99756.09;5031227;28;20041;-83
2023/07/16 00:59:12;;;;;;;8.98;4.38;;;;;;;20.22;100.00;99759.38;5031014;28;20026;-82
2023/07/16 01:01:42;;;;;;;6.88;4.50;;;;;;;20.20;100.00;99759.16;5032444;28;20107;-84
2023/07/16 01:04:07;;;;;;;5.43;4.63;;;;;;;20.18;100.00;99761.09;5032362;28;20034;-82
2023/07/16 01:06:41;;;;;;;5.88;4.38;;;;;;;20.16;100.00;99764.56;5032294;28;20029;-84
2023/07/16 01:09:09;;;;;;;6.45;4.70;;;;;;;20.18;100.00;99758.97;5031318;28;20426;-83
2023/07/16 01:11:36;;;;;;;7.97;4.85;;;;;;;20.16;100.00;99755.88;5031959;28;20045;-83
2023/07/16 01:14:05;;;;;;;5.13;4.53;;;;;;;20.13;100.00;99754.13;5030951;28;20037;-83
2023/07/16 01:16:31;;;;;;;6.25;5.22;;;;;;;20.10;100.00;99745.81;5014471;28;20124;-84
2023/07/16 01:18:58;;;;;;;6.60;4.57;;;;;;;20.08;100.00;99740.56;5031370;28;20116;-85
2023/07/16 01:21:31;;;;;;;9.07;4.93;;;;;;;20.05;100.00;99735.13;5015614;28;20454;-83
2023/07/16 01:24:17;;;;;;;5.75;4.70;;;;;;;20.03;100.00;99741.50;5016019;28;20083;-82
2023/07/16 01:27:01;;;;;;;5.20;4.70;;;;;;;19.92;100.00;99744.69;5031806;28;20061;-84
2023/07/16 01:29:36;;;;;;;8.70;4.70;;;;;;;19.88;100.00;99750.09;5033163;28;20036;-83
2023/07/16 01:32:05;;;;;;;5.88;4.53;;;;;;;19.85;100.00;99745.44;5034359;28;20033;-83
2023/07/16 01:34:45;;;;;;;6.35;4.57;;;;;;;19.85;100.00;99749.13;5035867;28;20036;-83
2023/07/16 01:37:10;;;;;;;9.45;4.88;;;;;;;19.78;100.00;99749.06;5036714;28;20029;-82
2023/07/16 01:39:36;;;;;;;7.55;5.22;;;;;;;19.77;100.00;99754.09;5022252;28;20083;-82
2023/07/16 01:42:03;;;;;;;7.07;5.10;;;;;;;19.75;100.00;99738.63;5024440;28;20524;-81
2023/07/16 01:44:29;;;;;;;12.73;5.65;;;;;;;19.69;100.00;99735.88;5042049;28;20040;-82
2023/07/16 01:47:25;;;;;;;7.20;5.05;;;;;;;19.68;100.00;99739.34;5045736;28;20041;-83
2023/07/16 01:49:51;;;;;;;8.93;5.18;;;;;;;19.64;100.00;99736.03;5043789;28;20033;-82
2023/07/16 01:52:25;;;;;;;5.55;4.25;;;;;;;19.67;100.00;99729.88;5026530;28;20021;-81
2023/07/16 01:54:51;;;;;;;5.47;4.32;;;;;;;19.66;100.00;99734.13;5042123;28;20041;-84
2023/07/16 01:57:17;;;;;;;5.93;4.95;;;;;;;19.67;100.00;99741.47;5037120;28;20147;-84
2023/07/16 01:59:42;;;;;;;6.63;4.50;;;;;;;19.69;100.00;99738.00;5037295;28;20021;-84
2023/07/16 02:02:09;;;;;;;5.78;4.80;;;;;;;19.70;100.00;99745.38;5037569;28;20034;-81
2023/07/16 02:04:35;;;;;;;6.00;4.45;;;;;;;19.62;100.00;99739.50;5037353;28;20036;-80
2023/07/16 02:07:02;;;;;;;6.32;4.88;;;;;;;19.69;100.00;99729.31;5036923;28;20033;-84
2023/07/16 02:09:36;;;;;;;5.38;4.65;;;;;;;19.68;100.00;99730.66;5036482;28;20040;-83
2023/07/16 02:12:04;;;;;;;5.70;4.47;;;;;;;19.68;100.00;99730.66;5035015;28;20045;-84
2023/07/16 02:14:31;;;;;;;5.78;4.70;;;;;;;19.67;100.00;99741.47;5035982;28;20033;-85
2023/07/16 02:16:57;;;;;;;4.55;4.15;;;;;;;19.62;100.00;99735.81;5036353;28;20045;-84
2023/07/16 02:19:25;;;;;;;9.35;5.18;;;;;;;19.60;100.00;99735.63;5036567;28;20034;-84
2023/07/16 02:21:51;;;;;;;6.25;4.95;;;;;;;19.62;100.00;99744.53;5051740;28;20107;-83
2023/07/16 02:24:17;;;;;;;5.28;4.40;;;;;;;19.56;100.00;99741.78;5036379;28;20055;-83
2023/07/16 02:26:50;;;;;;;5.00;4.43;;;;;;;19.65;100.00;99752.09;5036201;28;20392;-84
2023/07/16 02:29:18;;;;;;;6.00;4.68;;;;;;;19.62;100.00;99761.91;5034622;28;20034;-84
2023/07/16 02:31:48;;;;;;;4.88;4.47;;;;;;;19.57;100.00;99754.94;5035977;28;20079;-83
2023/07/16 02:34:14;;;;;;;5.95;4.50;;;;;;;19.58;100.00;99768.09;5036034;28;20041;-83
2023/07/16 02:36:39;;;;;;;5.00;4.60;;;;;;;19.54;100.00;99762.66;5018254;28;20106;-83
2023/07/16 02:39:04;;;;;;;5.63;4.93;;;;;;;19.58;100.00;99781.81;5034305;28;20026;-83
2023/07/16 02:41:31;;;;;;;7.82;4.40;;;;;;;19.58;100.00;99778.91;5035596;28;20034;-83
2023/07/16 02:44:03;;;;;;;8.38;4.53;;;;;;;19.61;100.00;99795.19;5035387;28;20036;-83
2023/07/16 02:46:29;;;;;;;6.05;5.25;;;;;;;19.58;100.00;99802.88;5034379;28;20033;-82
2023/07/16 02:48:54;;;;;;;7.75;4.90;;;;;;;19.59;100.00;99812.34;5034331;28;20026;-84
2023/07/16 02:51:20;;;;;;;6.35;4.72;;;;;;;19.58;100.00;99805.00;5034310;28;20052;-84
2023/07/16 02:53:47;;;;;;;10.00;5.25;;;;;;;19.51;100.00;99786.97;5035355;28;20037;-83
2023/07/16 02:56:14;;;;;;;7.97;4.90;;;;;;;19.53;100.00;99778.50;5035298;28;20123;-83
2023/07/16 02:58:39;;;;;;;5.38;4.88;;;;;;;19.45;100.00;99782.69;5035330;28;20024;-83
2023/07/16 03:01:05;;;;;;;7.47;5.03;;;;;;;19.41;100.00;99793.88;5017758;28;20113;-82
2023/07/16 03:03:31;;;;;;;7.05;4.95;;;;;;;19.39;100.00;99797.31;5035227;28;20063;-83
2023/07/16 03:05:59;;;;;;;6.72;4.88;;;;;;;19.27;100.00;99793.16;5035573;28;20036;-83
2023/07/16 03:08:29;;;;;;;5.82;4.75;;;;;;;19.49;100.00;99824.47;5035116;28;20025;-84
2023/07/16 03:10:57;;;;;;;9.88;5.20;;;;;;;19.54;100.00;99828.56;5034865;28;20069;-83
2023/07/16 03:13:23;;;;;;;7.30;5.13;;;;;;;19.58;100.00;99822.38;5035015;28;20033;-83
2023/07/16 03:15:50;;;;;;;6.85;5.45;;;;;;;19.56;100.00;99813.50;5035125;28;20467;-83
2023/07/16 03:18:18;;;;;;;7.38;5.28;;;;;;;19.53;100.00;99816.19;5035065;28;20030;-84
2023/07/16 03:20:45;;;;;;;9.27;5.45;;;;;;;19.48;100.00;99816.31;5033880;28;20039;-83
2023/07/16 03:23:16;;;;;;;5.72;4.90;;;;;;;19.47;100.00;99829.25;5034918;28;20029;-83
2023/07/16 03:25:42;;;;;;;5.75;4.88;;;;;;;19.47;100.00;99829.25;5035397;28;20109;-84
2023/07/16 03:28:09;;;;;;;7.22;4.80;;;;;;;19.51;100.00;99838.38;5017303;28;20560;-84
2023/07/16 03:30:37;;;;;;;6.13;5.43;;;;;;;19.53;100.00;99842.25;5034905;28;20028;-84
2023/07/16 03:33:04;;;;;;;6.60;4.97;;;;;;;19.59;100.00;99856.63;5033796;28;20108;-83
2023/07/16 03:35:31;;;;;;;7.55;4.97;;;;;;;19.66;100.00;99884.13;5017094;28;20068;-84
2023/07/16 03:37:56;;;;;;;7.35;4.70;;;;;;;19.72;100.00;99910.81;5034358;28;20047;-83
2023/07/16 03:40:25;;;;;;;7.38;5.32;;;;;;;19.81;100.00;99968.31;5033209;28;20112;-84
2023/07/16 03:42:50;;;;;;;7.55;4.97;;;;;;;19.92;100.00;99985.44;5034899;28;20379;-84
2023/07/16 03:45:17;;;;;;;4.88;4.38;;;;;;;20.04;100.00;100004.16;5033375;28;20446;-83
2023/07/16 03:47:43;;;;;;;7.22;4.63;;;;;;;20.18;100.00;99996.91;5050134;28;20025;-84
2023/07/16 03:50:09;;;;;;;5.10;4.30;;;;;;;20.33;100.00;99973.81;5033239;28;20013;-84
2023/07/16 03:52:35;;;;;;;9.85;5.15;;;;;;;20.42;100.00;99980.44;5034670;28;20021;-84
2023/07/16 03:55:03;;;;;;;6.32;4.53;;;;;;;20.54;100.00;99975.88;5032817;28;20079;-83
2023/07/16 03:57:28;;;;;;;7.57;4.78;;;;;;;20.67;100.00;99978.66;5034369;28;20018;-84
2023/07/16 03:59:54;;;;;;;5.85;5.22;;;;;;;20.78;100.00;99970.44;5016666;28;20033;-85
2023/07/16 04:02:21;;;;;;;5.68;4.13;;;;;;;20.89;100.00;99986.00;5033149;28;20042;-84
2023/07/16 04:04:47;;;;;;;10.98;4.65;;;;;;;20.99;100.00;99990.66;5032491;28;20403;-83
2023/07/16 04:07:14;;;;;;;8.18;4.57;;;;;;;21.16;100.00;100014.19;5034167;28;20135;-84
2023/07/16 04:09:42;;;;;;;6.00;4.57;;;;;;;20.95;100.00;99978.66;5034162;28;20501;-84
2023/07/16 04:12:09;;;;;;;6.80;4.55;;;;;;;21.19;100.00;99998.50;5031693;28;20056;-84
2023/07/16 04:14:36;;;;;;;6.88;4.22;;;;;;;21.33;100.00;99996.25;5033135;28;20034;-85
2023/07/16 04:17:02;;;;;;;5.22;4.25;;;;;;;21.47;100.00;99994.78;5033094;28;20033;-84
2023/07/16 04:19:30;;;;;;;6.80;4.32;;;;;;;21.63;100.00;100010.88;5032655;28;20412;-82
2023/07/16 04:22:04;;;;;;;9.85;4.45;;;;;;;21.84;100.00;100015.78;5033224;28;20108;-84
2023/07/16 04:24:30;;;;;;;4.57;3.78;;;;;;;21.95;100.00;100019.09;5033203;28;20025;-84
2023/07/16 04:26:55;;;;;;;7.32;4.07;;;;;;;22.14;100.00;100036.19;5032926;28;20588;-84
2023/07/16 04:29:21;;;;;;;7.85;4.00;;;;;;;22.25;100.00;100040.88;5032093;28;20079;-83
2023/07/16 04:31:48;;;;;;;5.97;4.30;;;;;;;22.37;100.00;100045.72;5031893;28;20064;-83
2023/07/16 04:34:13;;;;;;;4.70;3.97;;;;;;;22.48;100.00;100050.38;5010133;28;20095;-83
2023/07/16 04:36:39;;;;;;;4.47;3.72;;;;;;;22.55;100.00;100037.97;5031809;28;20060;-84
2023/07/16 04:39:04;;;;;;;6.97;4.05;;;;;;;22.77;100.00;100051.69;5013913;28;20471;-84
2023/07/16 04:41:30;;;;;;;6.43;4.18;;;;;;;22.84;100.00;100042.19;5031692;28;20033;-83
2023/07/16 04:43:56;;;;;;;7.95;3.65;;;;;;;22.93;100.00;100049.56;5015188;28;20040;-83
2023/07/16 04:46:23;;;;;;;5.57;3.85;;;;;;;23.00;100.00;100050.94;5031541;28;20418;-83
2023/07/16 04:48:49;;;;;;;4.18;3.42;;;;;;;23.09;100.00;100053.22;5032545;28;20478;-84
2023/07/16 04:51:15;;;;;;;5.82;3.78;;;;;;;23.16;100.00;100046.59;5033077;28;20032;-83
2023/07/16 04:53:40;;;;;;;4.40;3.67;;;;;;;23.23;100.00;100051.63;5032832;28;20030;-83
2023/07/16 04:56:16;;;;;;;7.40;3.70;;;;;;;23.29;100.00;100055.88;5031800;28;20047;-86
2023/07/16 04:58:43;;;;;;;8.93;3.88;;;;;;;23.39;100.00;100061.88;5032154;28;20021;-84
2023/07/16 05:01:10;;;;;;;8.98;3.72;;;;;;;23.45;100.00;100074.09;5032516;28;20145;-82
2023/07/16 05:03:36;;;;;;;9.93;4.30;;;;;;;23.47;100.00;100068.44;5033341;28;20022;-84
2023/07/16 05:06:16;;;;;;;6.88;3.38;;;;;;;23.54;100.00;100075.63;5038775;28;20017;-83
2023/07/16 05:08:41;;;;;;;4.75;3.30;;;;;;;23.57;100.00;100081.06;5048573;28;20028;-83
2023/07/16 05:11:08;;;;;;;8.30;3.75;;;;;;;23.62;100.00;100077.16;4974802;28;2082238;-83
2023/07/16 05:13:34;;;;;;;6.60;3.25;;;;;;;23.66;100.00;100083.34;5055159;28;20455;-84
2023/07/16 05:16:01;;;;;;;6.13;3.45;;;;;;;23.82;100.00;100092.81;5039387;28;20048;-83
2023/07/16 05:18:26;;;;;;;7.38;3.65;;;;;;;23.94;100.00;100096.84;5053374;28;20495;-84
2023/07/16 05:20:51;;;;;;;4.35;3.17;;;;;;;23.94;100.00;100078.56;5021376;28;20044;-83
2023/07/16 05:23:17;;;;;;;5.75;2.80;;;;;;;24.16;100.00;100110.50;5037218;28;20036;-84
2023/07/16 05:25:50;;;;;;;7.18;3.25;;;;;;;24.34;100.00;100113.56;5037254;28;20104;-83
2023/07/16 05:28:17;;;;;;;8.32;3.80;;;;;;;24.47;100.00;100119.09;5036020;28;20030;-83
2023/07/16 05:30:44;;;;;;;4.35;3.00;;;;;;;24.63;100.00;100108.84;5035834;28;20046;-81
2023/07/16 05:33:11;;;;;;;5.25;2.97;;;;;;;24.85;100.00;100115.84;5019946;28;20088;-83
2023/07/16 05:35:37;;;;;;;4.50;2.80;;;;;;;24.95;100.00;100122.59;5035954;28;20491;-78
2023/07/16 05:38:03;;;;;;;8.50;3.25;;;;;;;25.04;100.00;100113.16;5035689;28;20052;-84
2023/07/16 05:40:29;;;;;;;5.18;3.30;;;;;;;25.29;100.00;100113.84;5036400;28;20099;-79
2023/07/16 05:42:55;;;;;;;8.15;2.40;;;;;;;25.49;100.00;100109.75;5036866;28;20037;-76
2023/07/16 05:45:21;;;;;;;7.07;3.20;;;;;;;25.78;100.00;100107.03;5036731;28;20391;-76
2023/07/16 05:47:47;;;;;;;7.22;3.50;;;;;;;25.95;100.00;100102.53;5036833;28;20037;-82
2023/07/16 05:50:15;;;;;;;3.90;2.53;;;;;;;25.85;100.00;100108.34;5037437;28;20117;-82
2023/07/16 05:52:49;;;;;;;8.75;2.70;;;;;;;25.79;100.00;100113.69;5037349;28;20053;-83
2023/07/16 05:55:16;;;;;;;4.63;2.60;;;;;;;25.88;100.00;100107.88;5036972;28;20068;-79
2023/07/16 05:57:43;;;;;;;6.10;2.90;;;;;;;26.04;100.00;100105.53;5035806;28;20088;-81
2023/07/16 06:00:10;;;;;;;3.05;2.42;;;;;;;26.48;100.00;100122.28;5037070;28;20029;-82
2023/07/16 06:02:39;;;;;;;4.97;2.20;;;;;;;26.78;100.00;100121.81;5036907;28;20059;-80
2023/07/16 06:05:05;;;;;;;4.75;2.50;;;;;;;27.21;100.00;100122.97;5036384;28;20520;-78
2023/07/16 06:07:52;;;;;;;7.45;2.40;;;;;;;27.51;100.00;100145.13;5035580;28;20511;-79
2023/07/16 06:10:17;;;;;;;5.95;2.63;;;;;;;27.66;100.00;100144.81;5035846;28;20514;-80
2023/07/16 06:12:44;;;;;;;11.43;2.33;;;;;;;27.96;100.00;100150.09;5036186;28;20099;-81
2023/07/16 06:15:10;;;;;;;4.80;2.30;;;;;;;28.12;98.14;100156.41;5036094;28;20072;-83
2023/07/16 06:17:35;;;;;;;4.50;1.80;;;;;;;28.10;95.03;100159.19;5034104;28;20061;-79
2023/07/16 06:20:03;;;;;;;6.18;2.30;;;;;;;28.16;98.33;100161.81;5036029;28;20386;-79
2023/07/16 06:22:30;;;;;;;4.78;2.38;;;;;;;28.65;98.67;100166.94;5017879;28;20033;-82
2023/07/16 06:24:55;;;;;;;2.33;2.13;;;;;;;29.02;94.92;100164.50;5051369;28;20474;-81
2023/07/16 06:27:24;;;;;;;3.58;2.13;;;;;;;29.11;94.13;100181.34;5037135;28;20036;-80
2023/07/16 06:29:49;;;;;;;2.67;2.13;;;;;;;28.93;92.40;100180.00;5038200;28;20029;-82
2023/07/16 06:32:25;;;;;;;7.50;2.20;;;;;;;28.39;93.70;100162.81;5035552;28;20037;-81
2023/07/16 06:34:51;;;;;;;3.60;2.08;;;;;;;28.25;94.84;100193.34;5036866;28;20033;-81
2023/07/16 06:37:32;;;;;;;6.75;2.35;;;;;;;27.91;97.85;100180.56;5033875;28;20501;-79
2023/07/16 06:39:58;;;;;;;3.03;1.98;;;;;;;27.78;98.55;100183.16;5035680;28;20456;-78
2023/07/16 06:42:26;;;;;;;5.00;2.10;;;;;;;27.68;99.94;100194.13;5032518;28;20029;-80
2023/07/16 06:44:54;;;;;;;3.47;1.80;;;;;;;27.60;100.00;100192.09;5034618;28;20075;-81
2023/07/16 06:47:19;;;;;;;2.97;1.80;;;;;;;27.55;99.94;100199.06;5036004;28;20033;-80
2023/07/16 06:49:45;;;;;;;2.63;1.70;;;;;;;27.61;100.00;100187.00;5017814;28;20485;-89
2023/07/16 06:52:22;;;;;;;2.70;2.00;;;;;;;27.62;98.82;100203.25;5051686;28;20025;-86
2023/07/16 06:54:49;;;;;;;4.38;1.77;;;;;;;27.53;100.00;100206.94;5035688;28;20030;-78
2023/07/16 06:57:15;;;;;;;2.38;1.60;;;;;;;27.45;100.00;100206.34;5034383;28;20056;-83
2023/07/16 06:59:42;;;;;;;3.40;1.65;;;;;;;27.39;99.87;100209.56;5035357;28;20068;-83
2023/07/16 07:02:08;;;;;;;4.57;1.80;;;;;;;27.34;100.00;100218.66;5035284;28;20589;-81
2023/07/16 07:04:34;;;;;;;5.05;1.80;;;;;;;27.16;99.80;100220.88;5035737;28;20026;-87
2023/07/16 07:07:01;;;;;;;3.47;1.95;;;;;;;27.13;100.00;100222.13;5036022;28;20025;-88
2023/07/16 07:09:26;;;;;;;5.60;1.63;;;;;;;27.03;100.00;100215.44;5017501;28;20078;-83
2023/07/16 07:11:52;;;;;;;5.00;2.05;;;;;;;27.01;100.00;100212.38;5034547;28;20049;-82
2023/07/16 07:14:38;;;;;;;1.88;1.40;;;;;;;26.93;100.00;100215.41;5035882;28;20104;-85
2023/07/16 07:17:05;;;;;;;1.98;1.40;;;;;;;26.82;100.00;100195.44;5034317;28;20032;-87
2023/07/16 07:19:32;;;;;;;5.15;1.85;;;;;;;26.95;100.00;100200.13;5034646;28;20120;-87
2023/07/16 07:22:00;;;;;;;3.30;1.40;;;;;;;27.13;100.00;100210.38;5033678;28;20029;-86
2023/07/16 07:24:25;;;;;;;2.33;1.50;;;;;;;27.22;100.00;100209.63;5033907;28;20033;-86
2023/07/16 07:26:53;;;;;;;2.75;1.45;;;;;;;27.27;100.00;100217.38;5035408;28;20455;-87
2023/07/16 07:29:18;;;;;;;1.98;1.52;;;;;;;27.45;100.00;100218.06;5033478;28;20022;-86
2023/07/16 07:31:50;;;;;;;3.65;1.38;;;;;;;27.72;100.00;100217.94;5033371;28;20045;-88
2023/07/16 07:34:40;;;;;;;4.63;1.45;;;;;;;27.89;97.67;100224.50;4999796;28;20033;-88
2023/07/16 07:37:18;;;;;;;1.48;1.20;;;;;;;27.98;97.63;100222.94;5034068;28;20018;-88
2023/07/16 07:39:53;;;;;;;2.13;1.00;;;;;;;28.07;95.90;100222.16;5032424;28;20463;-88
2023/07/16 07:42:26;;;;;;;3.67;1.33;;;;;;;28.18;95.45;100209.00;5034019;28;20029;-87
2023/07/16 07:44:54;;;;;;;3.38;1.40;;;;;;;28.25;93.06;100208.03;5032602;28;20404;-87
2023/07/16 07:47:20;;;;;;;4.28;1.30;;;;;;;28.19;93.05;100205.44;5034588;28;20040;-87
2023/07/16 07:49:57;;;;;;;2.15;1.40;;;;;;;28.23;94.49;100214.56;5033740;28;20029;-88
2023/07/16 07:52:23;;;;;;;3.03;1.45;;;;;;;28.37;93.22;100224.44;5032320;28;20114;-86
2023/07/16 07:54:51;;;;;;;2.13;1.30;;;;;;;28.78;95.25;100212.75;5033334;28;20080;-87
2023/07/16 07:57:16;;;;;;;3.50;1.30;;;;;;;29.57;93.87;100218.44;5032318;28;20099;-87
2023/07/16 07:59:41;;;;;;;1.95;1.00;;;;;;;30.23;87.13;100207.50;5033422;28;20410;-88
2023/07/16 08:02:08;;;;;;;1.25;1.15;;;;;;;30.82;82.11;100217.28;5033748;28;20056;-89
2023/07/16 08:04:34;;;;;;;4.65;1.17;;;;;;;31.22;80.74;100205.13;5050924;28;20029;-88
2023/07/16 08:07:01;;;;;;;0.98;0.90;;;;;;;31.57;76.35;100199.16;5035331;28;20072;-87
2023/07/16 08:09:27;;;;;;;2.90;1.23;;;;;;;32.05;75.75;100200.56;5043369;28;20079;-85
2023/07/16 08:11:54;;;;;;;2.28;1.15;;;;;;;32.45;69.36;100196.28;5046854;28;20049;-83
2023/07/16 08:14:20;;;;;;;1.27;1.10;;;;;;;32.60;64.49;100192.72;5042173;28;20112;-86
2023/07/16 08:16:46;;;;;;;1.80;1.38;;;;;;;32.85;57.85;100198.63;5034171;28;20060;-87
2023/07/16 08:19:13;;;;;;;1.10;1.00;;;;;;;33.18;60.95;100201.19;5034271;28;20045;-86
2023/07/16 08:21:39;;;;;;;1.50;1.20;;;;;;;33.93;58.72;100194.13;5034696;28;20049;-88
2023/07/16 08:24:06;;;;;;;2.35;1.27;;;;;;;34.11;49.59;100209.13;5034598;28;20029;-88
2023/07/16 08:26:33;;;;;;;1.77;1.10;;;;;;;33.87;51.17;100211.59;5033640;28;20036;-88
2023/07/16 08:29:07;;;;;;;1.20;1.10;;;;;;;33.80;51.85;100200.09;5016750;28;20490;-85
2023/07/16 08:31:39;;;;;;;2.38;1.20;;;;;;;33.52;53.66;100202.31;5034266;28;20386;-86
2023/07/16 08:34:04;;;;;;;3.22;1.10;;;;;;;33.49;55.18;100191.75;5034546;28;20071;-88
2023/07/16 08:36:32;;;;;;;1.23;1.10;;;;;;;33.59;56.94;100189.34;5034354;28;20434;-86
2023/07/16 08:38:59;;;;;;;3.40;1.40;;;;;;;33.88;55.82;100192.38;5016398;28;20127;-86
2023/07/16 08:41:26;;;;;;;1.30;1.20;;;;;;;34.23;54.95;100180.09;5016483;28;20048;-87
2023/07/16 08:43:53;;;;;;;2.47;1.30;;;;;;;34.62;54.14;100182.00;5034029;28;20396;-87
2023/07/16 08:46:19;;;;;;;1.58;1.02;;;;;;;35.03;53.45;100178.75;4999820;28;20105;-87
2023/07/16 08:48:58;;;;;;;1.08;1.08;;;;;;;35.34;46.03;100178.75;5034049;28;20429;-87
2023/07/16 08:51:23;;;;;;;1.35;1.25;;;;;;;35.52;45.78;100170.66;5032757;28;20056;-87
2023/07/16 08:53:57;;;;;;;2.15;1.13;;;;;;;35.64;45.41;100169.69;5032621;28;20383;-87
2023/07/16 08:56:23;;;;;;;2.47;1.00;;;;;;;35.35;43.39;100171.34;5032611;28;20029;-87
2023/07/16 08:58:49;;;;;;;3.45;1.35;;;;;;;35.05;44.46;100175.91;5032190;28;20412;-87
2023/07/16 09:01:18;;;;;;;1.77;1.17;;;;;;;34.55;44.00;100175.00;5032789;28;20025;-86
2023/07/16 09:03:43;;;;;;;3.85;1.30;;;;;;;34.17;44.38;100170.88;5032691;28;20038;-88
2023/07/16 09:06:11;;;;;;;2.50;1.10;;;;;;;33.79;44.50;100163.75;5033874;28;20021;-87
2023/07/16 09:08:37;;;;;;;2.25;1.30;;;;;;;33.27;47.32;100184.66;5036415;28;20108;-87
2023/07/16 09:11:03;;;;;;;2.03;1.50;;;;;;;32.71;50.55;100211.84;5036704;28;20088;-86
2023/07/16 09:13:29;;;;;;;3.53;1.63;;;;;;;31.75;56.62;100217.25;5035748;28;20037;-87
2023/07/16 09:15:57;;;;;;;3.00;1.40;;;;;;;31.15;61.34;100209.09;5035825;28;20466;-86
2023/07/16 09:18:26;;;;;;;5.10;2.10;;;;;;;30.60;75.03;100178.22;5034871;28;20083;-86
2023/07/16 09:20:56;;;;;;;3.55;1.63;;;;;;;30.09;80.38;100130.63;5034340;28;20033;-86
2023/07/16 09:23:25;;;;;;;3.45;1.40;;;;;;;29.53;87.31;100127.56;5034277;28;20044;-88
2023/07/16 09:25:52;;;;;;;2.88;1.38;;;;;;;29.00;90.88;100143.72;5034307;28;20037;-86
2023/07/16 09:28:20;;;;;;;3.85;1.63;;;;;;;28.71;94.62;100140.94;5018437;28;20481;-87
2023/07/16 09:30:48;;;;;;;1.58;1.42;;;;;;;28.61;96.00;100136.47;5034797;28;20482;-86
2023/07/16 09:33:28;;;;;;;2.45;1.55;;;;;;;28.53;100.00;100133.75;5034156;28;20029;-87
2023/07/16 09:35:55;;;;;;;1.70;1.60;;;;;;;28.53;100.00;100132.97;5035110;28;20104;-86
2023/07/16 09:38:24;;;;;;;4.15;1.60;;;;;;;28.71;100.00;100151.91;5017034;28;20040;-87
2023/07/16 09:40:59;;;;;;;1.60;1.50;;;;;;;29.02;100.00;100154.91;5017343;28;20132;-85
2023/07/16 09:43:25;;;;;;;2.20;1.63;;;;;;;29.45;99.47;100158.63;5034042;28;20026;-87
2023/07/16 09:45:51;;;;;;;1.27;1.17;;;;;;;30.05;90.05;100164.97;5035177;28;20032;-86
2023/07/16 09:48:18;;;;;;;4.55;1.70;;;;;;;30.82;91.20;100173.78;5034292;28;20602;-88
2023/07/16 09:50:51;;;;;;;2.60;1.33;;;;;;;31.69;84.77;100169.63;5034877;28;20048;-86
2023/07/16 09:53:26;;;;;;;4.05;1.40;;;;;;;32.49;80.29;100182.50;5035418;28;20375;-85
2023/07/16 09:55:53;;;;;;;2.65;1.38;;;;;;;33.19;72.37;100184.19;5039048;28;20025;-87
2023/07/16 09:58:19;;;;;;;1.90;1.42;;;;;;;33.64;65.89;100199.97;5037580;28;20448;-88
2023/07/16 10:00:47;;;;;;;2.00;1.45;;;;;;;33.93;65.85;100205.22;5020528;28;20497;-86
2023/07/16 10:03:14;;;;;;;2.42;1.40;;;;;;;34.16;64.42;100213.88;5037424;28;20419;-87
2023/07/16 10:05:49;;;;;;;2.55;1.60;;;;;;;34.19;56.81;100223.63;5038995;28;20052;-86
2023/07/16 10:08:19;;;;;;;1.70;1.60;;;;;;;33.91;54.76;100238.53;5039449;28;20025;-87
2023/07/16 10:10:53;;;;;;;5.13;1.58;;;;;;;33.70;56.63;100235.91;5040067;28;20037;-88
2023/07/16 10:13:22;;;;;;;3.50;1.42;;;;;;;33.53;60.38;100234.25;5058926;28;20010;-87
2023/07/16 10:15:57;;;;;;;2.45;1.80;;;;;;;33.29;63.80;100235.88;5043489;28;20030;-83
2023/07/16 10:18:34;;;;;;;1.65;1.42;;;;;;;32.94;66.00;100239.09;5059625;28;20076;-85
2023/07/16 10:21:23;;;;;;;2.05;1.50;;;;;;;32.57;67.91;100230.31;5057465;28;20042;-86
2023/07/16 10:24:16;;;;;;;3.38;1.85;;;;;;;32.23;73.65;100229.09;5060515;28;20044;-84
2023/07/16 10:26:43;;;;;;;1.80;1.30;;;;;;;31.94;74.79;100228.78;5054633;28;20037;-86
2023/07/16 10:29:09;;;;;;;2.38;1.45;;;;;;;31.70;77.51;100225.13;5037702;28;20034;-87
2023/07/16 10:31:35;;;;;;;5.43;2.15;;;;;;;31.46;81.74;100229.50;5039547;28;20037;-88
2023/07/16 10:34:12;;;;;;;3.88;2.25;;;;;;;31.00;79.47;100242.09;5038305;28;20075;-88
2023/07/16 10:36:40;;;;;;;3.13;1.75;;;;;;;30.60;84.31;100239.41;5038266;28;20501;-88
2023/07/16 10:39:06;;;;;;;5.35;1.45;;;;;;;30.36;86.80;100230.50;5037579;28;20030;-88
2023/07/16 10:41:34;;;;;;;6.88;2.03;;;;;;;30.16;89.79;100229.16;5038639;28;20036;-88
2023/07/16 10:44:01;;;;;;;3.72;1.75;;;;;;;30.00;93.43;100236.84;5038422;28;20041;-89
2023/07/16 10:46:30;;;;;;;2.67;1.95;;;;;;;29.71;95.47;100220.19;5037819;28;20056;-88
2023/07/16 10:48:56;;;;;;;2.20;1.67;;;;;;;29.47;99.36;100221.41;5039224;28;20018;-87
2023/07/16 10:51:26;;;;;;;2.03;1.33;;;;;;;29.33;99.83;100234.38;5038588;28;20434;-88
2023/07/16 10:53:55;;;;;;;1.85;1.75;;;;;;;29.05;100.00;100241.94;5021008;28;20092;-86
2023/07/16 10:56:22;;;;;;;3.83;1.75;;;;;;;28.65;98.62;100248.53;5020208;28;20061;-88
2023/07/16 10:58:49;;;;;;;2.65;1.73;;;;;;;28.26;100.00;100257.41;5003507;28;20037;-88
2023/07/16 11:01:22;;;;;;;2.42;1.67;;;;;;;27.99;100.00;100259.75;5020312;28;20116;-88
2023/07/16 11:03:49;;;;;;;3.55;1.88;;;;;;;27.73;100.00;100246.69;5038528;28;20068;-88
2023/07/16 11:06:18;;;;;;;2.40;1.85;;;;;;;27.47;100.00;100241.69;5035300;28;20356;-87
2023/07/16 11:08:44;;;;;;;2.30;1.58;;;;;;;27.31;100.00;100250.00;5031940;28;20053;-88
2023/07/16 11:11:11;;;;;;;3.00;1.80;;;;;;;26.75;100.00;100197.13;5044287;28;20057;-85
2023/07/16 11:13:37;;;;;;;2.72;1.63;;;;;;;26.81;100.00;100229.09;5051730;28;20021;-84
2023/07/16 11:16:10;;;;;;;2.08;1.63;;;;;;;26.73;100.00;100252.66;5049925;28;20068;-86
2023/07/16 11:18:44;;;;;;;2.08;1.60;;;;;;;26.58;100.00;100255.00;5036573;28;20037;-88
2023/07/16 11:21:10;;;;;;;1.90;1.80;;;;;;;26.52;100.00;100267.00;5019178;28;20029;-89
2023/07/16 11:23:36;;;;;;;1.95;1.75;;;;;;;26.48;100.00;100257.88;5034944;28;20116;-88
2023/07/16 11:26:03;;;;;;;3.30;1.67;;;;;;;26.41;100.00;100261.72;5017841;28;20052;-88